sensor_id;sensor_type;location;lat;lon;timestamp;pressure;altitude;pressure_sealevel;temperature;humidity
39141;BME280;24875;48.436;10.298;2023-11-21T00:01:40;95708.38;;;10.14;100.00
39141;BME280;24875;48.436;10.298;2023-11-21T00:04:07;95701.66;;;10.26;100.00
39141;BME280;24875;48.436;10.298;2023-11-21T00:06:34;95704.75;;;10.15;100.00
39141;BME280;24875;48.436;10.298;2023-11-21T00:09:01;95705.28;;;10.04;100.00
39141;BME280;24875;48.436;10.298;2023-11-21T00:11:27;95699.94;;;10.60;100.00
39141;BME280;24875;48.436;10.298;2023-11-21T00:13:54;95701.59;;;10.68;100.00
39141;BME280;24875;48.436;10.298;2023-11-21T00:16:20;95698.31;;;10.59;100.00
39141;BME280;24875;48.436;10.298;2023-11-21T00:18:47;95699.00;;;10.47;100.00
39141;BME280;24875;48.436;10.298;2023-11-21T00:21:15;95697.66;;;10.78;100.00
39141;BME280;24875;48.436;10.298;2023-11-21T00:23:42;95698.81;;;10.69;100.00
39141;BME280;24875;48.436;10.298;2023-11-21T00:26:08;95704.06;;;10.69;100.00
39141;BME280;24875;48.436;10.298;2023-11-21T00:28:35;95710.53;;;10.67;100.00
39141;BME280;24875;48.436;10.298;2023-11-21T00:31:01;95712.59;;;10.71;100.00
39141;BME280;24875;48.436;10.298;2023-11-21T00:33:29;95713.72;;;10.62;100.00
39141;BME280;24875;48.436;10.298;2023-11-21T00:35:55;95700.88;;;10.53;100.00
39141;BME280;24875;48.436;10.298;2023-11-21T00:38:23;95724.06;;;10.64;100.00
39141;BME280;24875;48.436;10.298;2023-11-21T00:40:50;95715.50;;;10.55;100.00
39141;BME280;24875;48.436;10.298;2023-11-21T00:43:18;95719.94;;;10.34;100.00
39141;BME280;24875;48.436;10.298;2023-11-21T00:45:44;95724.47;;;10.40;100.00
39141;BME280;24875;48.436;10.298;2023-11-21T00:48:11;95719.69;;;10.50;100.00
39141;BME280;24875;48.436;10.298;2023-11-21T00:50:38;95718.38;;;10.39;100.00
39141;BME280;24875;48.436;10.298;2023-11-21T00:53:05;95723.44;;;10.41;100.00
39141;BME280;24875;48.436;10.298;2023-11-21T00:55:33;95720.38;;;10.58;100.00
39141;BME280;24875;48.436;10.298;2023-11-21T00:58:01;95716.78;;;10.45;100.00
39141;BME280;24875;48.436;10.298;2023-11-21T01:00:28;95711.94;;;10.63;100.00
39141;BME280;24875;48.436;10.298;2023-11-21T01:02:55;95716.69;;;10.53;100.00
39141;BME280;24875;48.436;10.298;2023-11-21T01:05:21;95716.09;;;10.57;100.00
39141;BME280;24875;48.436;10.298;2023-11-21T01:07:48;95708.06;;;10.65;100.00
39141;BME280;24875;48.436;10.298;2023-11-21T01:10:15;95702.19;;;10.63;100.00
39141;BME280;24875;48.436;10.298;2023-11-21T01:12:44;95707.41;;;10.84;100.00
39141;BME280;24875;48.436;10.298;2023-11-21T01:15:10;95705.31;;;10.73;100.00
39141;BME280;24875;48.436;10.298;2023-11-21T01:17:38;95703.72;;;10.79;100.00
39141;BME280;24875;48.436;10.298;2023-11-21T01:20:05;95700.16;;;10.86;100.00
39141;BME280;24875;48.436;10.298;2023-11-21T01:22:37;95701.00;;;10.45;100.00
39141;BME280;24875;48.436;10.298;2023-11-21T01:25:04;95691.66;;;10.63;100.00
39141;BME280;24875;48.436;10.298;2023-11-21T01:27:32;95692.16;;;10.52;100.00
39141;BME280;24875;48.436;10.298;2023-11-21T01:30:01;95700.47;;;10.77;100.00
39141;BME280;24875;48.436;10.298;2023-11-21T01:32:27;95701.25;;;10.71;100.00
39141;BME280;24875;48.436;10.298;2023-11-21T01:34:54;95693.53;;;10.69;100.00
39141;BME280;24875;48.436;10.298;2023-11-21T01:37:21;95692.69;;;10.69;100.00
39141;BME280;24875;48.436;10.298;2023-11-21T01:39:48;95690.34;;;10.80;100.00
39141;BME280;24875;48.436;10.298;2023-11-21T01:42:14;95694.34;;;10.70;100.00
39141;BME280;24875;48.436;10.298;2023-11-21T01:44:40;95687.81;;;10.66;100.00
39141;BME280;24875;48.436;10.298;2023-11-21T01:47:09;95685.97;;;10.87;100.00
39141;BME280;24875;48.436;10.298;2023-11-21T01:49:36;95689.91;;;10.77;100.00
39141;BME280;24875;48.436;10.298;2023-11-21T01:52:03;95686.34;;;10.84;100.00
39141;BME280;24875;48.436;10.298;2023-11-21T01:54:30;95691.16;;;10.12;100.00
39141;BME280;24875;48.436;10.298;2023-11-21T01:56:58;95686.09;;;10.10;100.00
39141;BME280;24875;48.436;10.298;2023-11-21T01:59:30;95701.19;;;10.23;100.00
39141;BME280;24875;48.436;10.298;2023-11-21T02:02:00;95698.97;;;10.05;100.00
39141;BME280;24875;48.436;10.298;2023-11-21T02:04:28;95701.66;;;10.26;100.00
39141;BME280;24875;48.436;10.298;2023-11-21T02:06:54;95699.41;;;9.73;100.00
39141;BME280;24875;48.436;10.298;2023-11-21T02:09:24;95686.16;;;10.17;100.00
39141;BME280;24875;48.436;10.298;2023-11-21T02:11:51;95695.72;;;9.89;100.00
39141;BME280;24875;48.436;10.298;2023-11-21T02:14:19;95688.78;;;9.96;100.00
39141;BME280;24875;48.436;10.298;2023-11-21T02:16:48;95688.09;;;9.94;100.00
39141;BME280;24875;48.436;10.298;2023-11-21T02:19:18;95688.19;;;10.00;100.00
39141;BME280;24875;48.436;10.298;2023-11-21T02:21:49;95686.53;;;10.14;100.00
39141;BME280;24875;48.436;10.298;2023-11-21T02:24:18;95699.94;;;9.83;100.00
39141;BME280;24875;48.436;10.298;2023-11-21T02:26:45;95701.25;;;9.59;100.00
39141;BME280;24875;48.436;10.298;2023-11-21T02:29:11;95694.19;;;9.59;100.00
39141;BME280;24875;48.436;10.298;2023-11-21T02:31:38;95684.09;;;9.63;100.00
39141;BME280;24875;48.436;10.298;2023-11-21T02:34:13;95692.19;;;9.47;100.00
39141;BME280;24875;48.436;10.298;2023-11-21T02:36:39;95689.09;;;9.58;100.00
39141;BME280;24875;48.436;10.298;2023-11-21T02:39:07;95680.41;;;9.43;100.00
39141;BME280;24875;48.436;10.298;2023-11-21T02:41:36;95681.47;;;9.63;100.00
39141;BME280;24875;48.436;10.298;2023-11-21T02:44:02;95681.66;;;9.47;100.00
39141;BME280;24875;48.436;10.298;2023-11-21T02:46:31;95672.31;;;9.59;100.00
39141;BME280;24875;48.436;10.298;2023-11-21T02:48:58;95677.78;;;9.43;100.00
39141;BME280;24875;48.436;10.298;2023-11-21T02:51:25;95678.06;;;9.48;100.00
39141;BME280;24875;48.436;10.298;2023-11-21T02:53:52;95676.72;;;9.37;100.00
39141;BME280;24875;48.436;10.298;2023-11-21T02:56:18;95676.69;;;9.52;100.00
39141;BME280;24875;48.436;10.298;2023-11-21T02:58:46;95670.50;;;9.59;100.00
39141;BME280;24875;48.436;10.298;2023-11-21T03:01:12;95676.59;;;9.45;100.00
39141;BME280;24875;48.436;10.298;2023-11-21T03:03:39;95670.66;;;9.37;100.00
39141;BME280;24875;48.436;10.298;2023-11-21T03:06:05;95671.91;;;9.41;100.00
39141;BME280;24875;48.436;10.298;2023-11-21T03:08:32;95671.00;;;9.48;100.00
39141;BME280;24875;48.436;10.298;2023-11-21T03:10:58;95663.91;;;9.49;100.00
39141;BME280;24875;48.436;10.298;2023-11-21T03:13:25;95672.06;;;9.39;100.00
39141;BME280;24875;48.436;10.298;2023-11-21T03:15:53;95664.88;;;9.62;100.00
39141;BME280;24875;48.436;10.298;2023-11-21T03:18:19;95670.72;;;9.43;100.00
39141;BME280;24875;48.436;10.298;2023-11-21T03:20:47;95673.34;;;9.43;100.00
39141;BME280;24875;48.436;10.298;2023-11-21T03:23:14;95674.53;;;9.41;100.00
39141;BME280;24875;48.436;10.298;2023-11-21T03:25:40;95670.19;;;9.33;100.00
39141;BME280;24875;48.436;10.298;2023-11-21T03:28:07;95669.66;;;9.23;100.00
39141;BME280;24875;48.436;10.298;2023-11-21T03:30:34;95681.88;;;9.31;100.00
39141;BME280;24875;48.436;10.298;2023-11-21T03:33:02;95669.13;;;9.28;100.00
39141;BME280;24875;48.436;10.298;2023-11-21T03:35:28;95672.72;;;9.27;100.00
39141;BME280;24875;48.436;10.298;2023-11-21T03:37:55;95675.63;;;9.17;100.00
39141;BME280;24875;48.436;10.298;2023-11-21T03:40:21;95682.34;;;9.34;100.00
39141;BME280;24875;48.436;10.298;2023-11-21T03:42:48;95678.53;;;9.37;100.00
39141;BME280;24875;48.436;10.298;2023-11-21T03:45:14;95675.56;;;9.25;100.00
39141;BME280;24875;48.436;10.298;2023-11-21T03:47:41;95679.94;;;9.39;100.00
39141;BME280;24875;48.436;10.298;2023-11-21T03:50:09;95667.00;;;9.38;100.00
39141;BME280;24875;48.436;10.298;2023-11-21T03:52:37;95679.78;;;9.41;100.00
39141;BME280;24875;48.436;10.298;2023-11-21T03:55:04;95682.94;;;9.51;100.00
39141;BME280;24875;48.436;10.298;2023-11-21T03:57:30;95680.06;;;9.46;100.00
39141;BME280;24875;48.436;10.298;2023-11-21T03:59:57;95681.41;;;9.42;100.00
39141;BME280;24875;48.436;10.298;2023-11-21T04:02:23;95687.22;;;9.37;100.00
39141;BME280;24875;48.436;10.298;2023-11-21T04:04:51;95676.94;;;9.57;100.00
39141;BME280;24875;48.436;10.298;2023-11-21T04:07:19;95678.00;;;9.76;100.00
39141;BME280;24875;48.436;10.298;2023-11-21T04:09:47;95681.88;;;9.31;100.00
39141;BME280;24875;48.436;10.298;2023-11-21T04:12:13;95684.63;;;9.23;100.00
39141;BME280;24875;48.436;10.298;2023-11-21T04:14:40;95683.22;;;9.41;100.00
39141;BME280;24875;48.436;10.298;2023-11-21T04:17:06;95682.78;;;9.38;100.00
39141;BME280;24875;48.436;10.298;2023-11-21T04:19:33;95683.31;;;9.48;100.00
39141;BME280;24875;48.436;10.298;2023-11-21T04:22:00;95680.13;;;9.38;100.00
39141;BME280;24875;48.436;10.298;2023-11-21T04:24:27;95673.09;;;9.73;100.00
39141;BME280;24875;48.436;10.298;2023-11-21T04:26:54;95671.53;;;9.44;100.00
39141;BME280;24875;48.436;10.298;2023-11-21T04:29:20;95673.63;;;9.34;100.00
39141;BME280;24875;48.436;10.298;2023-11-21T04:31:48;95682.31;;;9.49;100.00
39141;BME280;24875;48.436;10.298;2023-11-21T04:34:15;95685.31;;;9.46;100.00
39141;BME280;24875;48.436;10.298;2023-11-21T04:36:41;95689.91;;;9.58;100.00
39141;BME280;24875;48.436;10.298;2023-11-21T04:39:08;95695.16;;;9.58;100.00
39141;BME280;24875;48.436;10.298;2023-11-21T04:41:36;95694.44;;;9.64;100.00
39141;BME280;24875;48.436;10.298;2023-11-21T04:44:04;95707.25;;;9.53;100.00
39141;BME280;24875;48.436;10.298;2023-11-21T04:46:31;95706.59;;;9.51;100.00
39141;BME280;24875;48.436;10.298;2023-11-21T04:48:58;95710.16;;;9.58;100.00
39141;BME280;24875;48.436;10.298;2023-11-21T04:51:24;95706.72;;;9.43;100.00
39141;BME280;24875;48.436;10.298;2023-11-21T04:53:51;95708.13;;;9.60;100.00
39141;BME280;24875;48.436;10.298;2023-11-21T04:56:17;95703.97;;;9.51;100.00
39141;BME280;24875;48.436;10.298;2023-11-21T04:58:45;95703.97;;;9.65;100.00
39141;BME280;24875;48.436;10.298;2023-11-21T05:01:12;95708.88;;;9.54;100.00
39141;BME280;24875;48.436;10.298;2023-11-21T05:03:38;95712.28;;;9.68;100.00
39141;BME280;24875;48.436;10.298;2023-11-21T05:06:06;95709.75;;;9.61;100.00
39141;BME280;24875;48.436;10.298;2023-11-21T05:08:32;95712.13;;;9.56;100.00
39141;BME280;24875;48.436;10.298;2023-11-21T05:10:59;95714.16;;;9.54;100.00
39141;BME280;24875;48.436;10.298;2023-11-21T05:13:25;95713.94;;;9.55;100.00
39141;BME280;24875;48.436;10.298;2023-11-21T05:15:54;95705.25;;;9.55;100.00
39141;BME280;24875;48.436;10.298;2023-11-21T05:18:20;95700.91;;;9.47;100.00
39141;BME280;24875;48.436;10.298;2023-11-21T05:20:47;95713.41;;;9.45;100.00
39141;BME280;24875;48.436;10.298;2023-11-21T05:23:14;95704.25;;;9.56;100.00
39141;BME280;24875;48.436;10.298;2023-11-21T05:25:40;95702.72;;;9.47;100.00
39141;BME280;24875;48.436;10.298;2023-11-21T05:28:07;95708.63;;;9.34;100.00
39141;BME280;24875;48.436;10.298;2023-11-21T05:30:34;95706.16;;;9.33;100.00
39141;BME280;24875;48.436;10.298;2023-11-21T05:33:01;95701.97;;;9.53;100.00
39141;BME280;24875;48.436;10.298;2023-11-21T05:35:28;95709.06;;;9.38;100.00
39141;BME280;24875;48.436;10.298;2023-11-21T05:37:54;95704.44;;;9.40;100.00
39141;BME280;24875;48.436;10.298;2023-11-21T05:40:21;95710.31;;;9.42;100.00
39141;BME280;24875;48.436;10.298;2023-11-21T05:42:48;95704.25;;;9.41;100.00
39141;BME280;24875;48.436;10.298;2023-11-21T05:45:16;95707.69;;;9.42;100.00
39141;BME280;24875;48.436;10.298;2023-11-21T05:47:45;95711.31;;;9.55;100.00
39141;BME280;24875;48.436;10.298;2023-11-21T05:50:14;95709.41;;;9.64;100.00
39141;BME280;24875;48.436;10.298;2023-11-21T05:52:42;95708.53;;;9.42;100.00
39141;BME280;24875;48.436;10.298;2023-11-21T05:55:08;95709.16;;;9.59;100.00
39141;BME280;24875;48.436;10.298;2023-11-21T05:57:36;95718.31;;;9.34;100.00
39141;BME280;24875;48.436;10.298;2023-11-21T06:00:04;95721.22;;;9.39;100.00
39141;BME280;24875;48.436;10.298;2023-11-21T06:02:37;95722.50;;;9.14;100.00
39141;BME280;24875;48.436;10.298;2023-11-21T06:05:04;95725.13;;;9.14;100.00
39141;BME280;24875;48.436;10.298;2023-11-21T06:07:32;95724.66;;;9.25;100.00
39141;BME280;24875;48.436;10.298;2023-11-21T06:09:58;95729.13;;;9.24;100.00
39141;BME280;24875;48.436;10.298;2023-11-21T06:12:27;95726.03;;;9.07;100.00
39141;BME280;24875;48.436;10.298;2023-11-21T06:14:54;95726.56;;;9.02;100.00
39141;BME280;24875;48.436;10.298;2023-11-21T06:17:20;95731.09;;;9.22;100.00
39141;BME280;24875;48.436;10.298;2023-11-21T06:19:47;95729.22;;;9.31;100.00
39141;BME280;24875;48.436;10.298;2023-11-21T06:22:14;95728.38;;;9.30;100.00
39141;BME280;24875;48.436;10.298;2023-11-21T06:24:42;95738.91;;;9.45;100.00
39141;BME280;24875;48.436;10.298;2023-11-21T06:27:08;95733.72;;;9.22;100.00
39141;BME280;24875;48.436;10.298;2023-11-21T06:29:35;95733.25;;;9.05;100.00
39141;BME280;24875;48.436;10.298;2023-11-21T06:32:02;95737.41;;;8.85;100.00
39141;BME280;24875;48.436;10.298;2023-11-21T06:34:30;95741.69;;;8.63;100.00
39141;BME280;24875;48.436;10.298;2023-11-21T06:36:56;95738.59;;;8.60;100.00
39141;BME280;24875;48.436;10.298;2023-11-21T06:39:23;95744.47;;;8.84;100.00
39141;BME280;24875;48.436;10.298;2023-11-21T06:41:51;95747.16;;;8.76;100.00
39141;BME280;24875;48.436;10.298;2023-11-21T06:44:17;95751.94;;;8.73;100.00
39141;BME280;24875;48.436;10.298;2023-11-21T06:46:44;95753.47;;;8.90;100.00
39141;BME280;24875;48.436;10.298;2023-11-21T06:49:11;95747.56;;;8.88;100.00
39141;BME280;24875;48.436;10.298;2023-11-21T06:51:37;95750.19;;;8.88;100.00
39141;BME280;24875;48.436;10.298;2023-11-21T06:54:05;95755.66;;;9.15;100.00
39141;BME280;24875;48.436;10.298;2023-11-21T06:56:32;95756.44;;;9.01;100.00
39141;BME280;24875;48.436;10.298;2023-11-21T06:59:00;95766.16;;;9.15;100.00
39141;BME280;24875;48.436;10.298;2023-11-21T07:01:26;95771.97;;;8.96;100.00
39141;BME280;24875;48.436;10.298;2023-11-21T07:03:53;95771.41;;;9.01;100.00
39141;BME280;24875;48.436;10.298;2023-11-21T07:06:19;95772.50;;;9.06;100.00
39141;BME280;24875;48.436;10.298;2023-11-21T07:08:46;95775.84;;;9.00;100.00
39141;BME280;24875;48.436;10.298;2023-11-21T07:11:13;95783.47;;;9.09;100.00
39141;BME280;24875;48.436;10.298;2023-11-21T07:13:40;95790.47;;;9.17;100.00
39141;BME280;24875;48.436;10.298;2023-11-21T07:16:08;95789.78;;;9.37;100.00
39141;BME280;24875;48.436;10.298;2023-11-21T07:18:35;95791.38;;;9.24;100.00
39141;BME280;24875;48.436;10.298;2023-11-21T07:21:02;95798.91;;;9.27;100.00
39141;BME280;24875;48.436;10.298;2023-11-21T07:23:28;95793.47;;;9.14;100.00
39141;BME280;24875;48.436;10.298;2023-11-21T07:25:55;95809.34;;;9.35;100.00
39141;BME280;24875;48.436;10.298;2023-11-21T07:28:24;95804.56;;;9.53;100.00
39141;BME280;24875;48.436;10.298;2023-11-21T07:30:50;95812.63;;;9.51;100.00
39141;BME280;24875;48.436;10.298;2023-11-21T07:33:19;95800.47;;;9.65;100.00
39141;BME280;24875;48.436;10.298;2023-11-21T07:35:46;95808.44;;;9.57;100.00
39141;BME280;24875;48.436;10.298;2023-11-21T07:38:13;95814.16;;;9.74;100.00
39141;BME280;24875;48.436;10.298;2023-11-21T07:40:40;95814.63;;;9.64;100.00
39141;BME280;24875;48.436;10.298;2023-11-21T07:43:06;95813.53;;;9.87;100.00
39141;BME280;24875;48.436;10.298;2023-11-21T07:45:32;95818.22;;;9.91;100.00
39141;BME280;24875;48.436;10.298;2023-11-21T07:47:59;95818.53;;;9.82;100.00
39141;BME280;24875;48.436;10.298;2023-11-21T07:50:27;95821.97;;;10.11;100.00
39141;BME280;24875;48.436;10.298;2023-11-21T07:52:53;95815.22;;;10.23;100.00
39141;BME280;24875;48.436;10.298;2023-11-21T07:55:20;95827.13;;;10.19;100.00
39141;BME280;24875;48.436;10.298;2023-11-21T07:57:47;95828.97;;;10.19;100.00
39141;BME280;24875;48.436;10.298;2023-11-21T08:00:14;95829.41;;;10.22;100.00
39141;BME280;24875;48.436;10.298;2023-11-21T08:02:41;95829.19;;;10.38;100.00
39141;BME280;24875;48.436;10.298;2023-11-21T08:05:11;95832.41;;;10.19;100.00
39141;BME280;24875;48.436;10.298;2023-11-21T08:07:39;95831.97;;;10.16;100.00
39141;BME280;24875;48.436;10.298;2023-11-21T08:10:06;95836.25;;;10.02;100.00
39141;BME280;24875;48.436;10.298;2023-11-21T08:12:35;95832.63;;;10.03;100.00
39141;BME280;24875;48.436;10.298;2023-11-21T08:15:02;95831.16;;;9.86;100.00
39141;BME280;24875;48.436;10.298;2023-11-21T08:17:29;95829.06;;;10.11;100.00
39141;BME280;24875;48.436;10.298;2023-11-21T08:19:58;95829.34;;;10.01;100.00
39141;BME280;24875;48.436;10.298;2023-11-21T08:22:24;95835.97;;;9.97;100.00
39141;BME280;24875;48.436;10.298;2023-11-21T08:24:52;95832.81;;;10.37;100.00
39141;BME280;24875;48.436;10.298;2023-11-21T08:27:21;95833.00;;;10.35;100.00
39141;BME280;24875;48.436;10.298;2023-11-21T08:29:47;95842.03;;;9.98;100.00
39141;BME280;24875;48.436;10.298;2023-11-21T08:32:14;95840.94;;;10.07;100.00
39141;BME280;24875;48.436;10.298;2023-11-21T08:34:40;95835.94;;;10.12;100.00
39141;BME280;24875;48.436;10.298;2023-11-21T08:37:08;95846.75;;;10.31;100.00
39141;BME280;24875;48.436;10.298;2023-11-21T08:39:36;95850.31;;;10.44;100.00
39141;BME280;24875;48.436;10.298;2023-11-21T08:42:04;95850.38;;;10.30;100.00
39141;BME280;24875;48.436;10.298;2023-11-21T08:44:31;95850.91;;;10.40;100.00
39141;BME280;24875;48.436;10.298;2023-11-21T08:46:58;95849.84;;;10.55;100.00
39141;BME280;24875;48.436;10.298;2023-11-21T08:49:24;95848.66;;;10.58;100.00
39141;BME280;24875;48.436;10.298;2023-11-21T08:51:53;95857.19;;;10.60;100.00
39141;BME280;24875;48.436;10.298;2023-11-21T08:54:20;95850.13;;;10.81;100.00
39141;BME280;24875;48.436;10.298;2023-11-21T08:56:46;95858.22;;;10.80;100.00
39141;BME280;24875;48.436;10.298;2023-11-21T08:59:14;95847.41;;;10.95;100.00
39141;BME280;24875;48.436;10.298;2023-11-21T09:01:41;95851.00;;;10.88;100.00
39141;BME280;24875;48.436;10.298;2023-11-21T09:04:08;95855.34;;;10.75;100.00
39141;BME280;24875;48.436;10.298;2023-11-21T09:06:34;95860.94;;;10.51;100.00
39141;BME280;24875;48.436;10.298;2023-11-21T09:09:01;95865.34;;;10.65;100.00
39141;BME280;24875;48.436;10.298;2023-11-21T09:11:30;95861.16;;;10.70;100.00
39141;BME280;24875;48.436;10.298;2023-11-21T09:13:59;95870.59;;;10.44;100.00
39141;BME280;24875;48.436;10.298;2023-11-21T09:16:26;95873.31;;;10.50;100.00
39141;BME280;24875;48.436;10.298;2023-11-21T09:18:53;95867.03;;;10.37;100.00
39141;BME280;24875;48.436;10.298;2023-11-21T09:21:19;95868.28;;;10.55;100.00
39141;BME280;24875;48.436;10.298;2023-11-21T09:23:46;95873.03;;;10.81;100.00
39141;BME280;24875;48.436;10.298;2023-11-21T09:26:13;95876.00;;;10.57;100.00
39141;BME280;24875;48.436;10.298;2023-11-21T09:28:41;95877.41;;;10.74;100.00
39141;BME280;24875;48.436;10.298;2023-11-21T09:31:11;95873.28;;;10.86;100.00
39141;BME280;24875;48.436;10.298;2023-11-21T09:33:39;95872.38;;;10.58;100.00
39141;BME280;24875;48.436;10.298;2023-11-21T09:36:11;95873.91;;;10.52;100.00
39141;BME280;24875;48.436;10.298;2023-11-21T09:38:38;95873.13;;;10.73;100.00
39141;BME280;24875;48.436;10.298;2023-11-21T09:41:11;95871.72;;;10.91;100.00
39141;BME280;24875;48.436;10.298;2023-11-21T09:43:43;95876.03;;;10.78;100.00
39141;BME280;24875;48.436;10.298;2023-11-21T09:46:12;95878.44;;;10.93;100.00
39141;BME280;24875;48.436;10.298;2023-11-21T09:48:47;95883.81;;;10.86;100.00
39141;BME280;24875;48.436;10.298;2023-11-21T09:51:18;95873.13;;;10.73;100.00
39141;BME280;24875;48.436;10.298;2023-11-21T09:53:47;95866.06;;;10.94;100.00
39141;BME280;24875;48.436;10.298;2023-11-21T09:56:17;95872.06;;;10.88;100.00
39141;BME280;24875;48.436;10.298;2023-11-21T09:58:50;95863.25;;;10.95;100.00
39141;BME280;24875;48.436;10.298;2023-11-21T10:01:18;95869.56;;;10.80;100.00
39141;BME280;24875;48.436;10.298;2023-11-21T10:03:47;95869.75;;;10.79;100.00
39141;BME280;24875;48.436;10.298;2023-11-21T10:06:13;95870.31;;;10.39;100.00
39141;BME280;24875;48.436;10.298;2023-11-21T10:08:41;95865.53;;;10.63;100.00
39141;BME280;24875;48.436;10.298;2023-11-21T10:11:08;95873.75;;;10.54;100.00
39141;BME280;24875;48.436;10.298;2023-11-21T10:13:37;95867.06;;;10.72;100.00
39141;BME280;24875;48.436;10.298;2023-11-21T10:16:07;95868.69;;;10.94;100.00
39141;BME280;24875;48.436;10.298;2023-11-21T10:18:37;95868.50;;;10.95;100.00
39141;BME280;24875;48.436;10.298;2023-11-21T10:21:07;95867.38;;;11.25;100.00
39141;BME280;24875;48.436;10.298;2023-11-21T10:23:34;95852.16;;;11.27;100.00
39141;BME280;24875;48.436;10.298;2023-11-21T10:26:01;95856.69;;;11.54;100.00
39141;BME280;24875;48.436;10.298;2023-11-21T10:28:27;95856.25;;;11.78;100.00
39141;BME280;24875;48.436;10.298;2023-11-21T10:30:54;95859.00;;;11.63;100.00
39141;BME280;24875;48.436;10.298;2023-11-21T10:33:27;95862.84;;;11.95;100.00
39141;BME280;24875;48.436;10.298;2023-11-21T10:35:53;95864.66;;;11.88;100.00
39141;BME280;24875;48.436;10.298;2023-11-21T10:38:21;95864.28;;;11.63;100.00
39141;BME280;24875;48.436;10.298;2023-11-21T10:40:50;95857.84;;;11.72;100.00
39141;BME280;24875;48.436;10.298;2023-11-21T10:43:17;95865.28;;;11.62;100.00
39141;BME280;24875;48.436;10.298;2023-11-21T10:45:43;95859.94;;;11.83;100.00
39141;BME280;24875;48.436;10.298;2023-11-21T10:48:12;95859.66;;;12.06;100.00
39141;BME280;24875;48.436;10.298;2023-11-21T10:50:40;95857.66;;;12.14;100.00
39141;BME280;24875;48.436;10.298;2023-11-21T10:53:07;95857.13;;;11.91;100.00
39141;BME280;24875;48.436;10.298;2023-11-21T10:55:35;95856.44;;;12.50;100.00
39141;BME280;24875;48.436;10.298;2023-11-21T10:58:03;95857.81;;;12.40;100.00
39141;BME280;24875;48.436;10.298;2023-11-21T11:00:31;95851.69;;;12.39;100.00
39141;BME280;24875;48.436;10.298;2023-11-21T11:02:57;95859.13;;;12.63;100.00
39141;BME280;24875;48.436;10.298;2023-11-21T11:05:25;95859.16;;;12.76;100.00
39141;BME280;24875;48.436;10.298;2023-11-21T11:07:58;95860.75;;;12.17;100.00
39141;BME280;24875;48.436;10.298;2023-11-21T11:10:26;95864.47;;;11.96;100.00
39141;BME280;24875;48.436;10.298;2023-11-21T11:12:56;95854.47;;;12.18;100.00
39141;BME280;24875;48.436;10.298;2023-11-21T11:15:24;95861.94;;;12.15;100.00
39141;BME280;24875;48.436;10.298;2023-11-21T11:17:50;95850.81;;;12.19;100.00
39141;BME280;24875;48.436;10.298;2023-11-21T11:20:17;95851.63;;;12.20;100.00
39141;BME280;24875;48.436;10.298;2023-11-21T11:22:54;95849.78;;;12.67;100.00
39141;BME280;24875;48.436;10.298;2023-11-21T11:25:35;95847.22;;;12.93;100.00
39141;BME280;24875;48.436;10.298;2023-11-21T11:28:08;95844.59;;;13.06;100.00
39141;BME280;24875;48.436;10.298;2023-11-21T11:30:43;95846.25;;;13.26;100.00
39141;BME280;24875;48.436;10.298;2023-11-21T11:33:21;95841.78;;;13.59;100.00
39141;BME280;24875;48.436;10.298;2023-11-21T11:35:56;95839.56;;;13.30;100.00
39141;BME280;24875;48.436;10.298;2023-11-21T11:38:27;95835.06;;;13.37;100.00
39141;BME280;24875;48.436;10.298;2023-11-21T11:40:57;95839.06;;;12.88;100.00
39141;BME280;24875;48.436;10.298;2023-11-21T11:43:29;95838.09;;;13.08;100.00
39141;BME280;24875;48.436;10.298;2023-11-21T11:45:58;95830.75;;;13.55;100.00
39141;BME280;24875;48.436;10.298;2023-11-21T11:48:25;95840.56;;;13.48;100.00
39141;BME280;24875;48.436;10.298;2023-11-21T11:51:02;95838.91;;;13.80;100.00
39141;BME280;24875;48.436;10.298;2023-11-21T11:53:35;95838.50;;;13.05;100.00
39141;BME280;24875;48.436;10.298;2023-11-21T11:56:27;95843.00;;;13.24;100.00
39141;BME280;24875;48.436;10.298;2023-11-21T11:58:57;95847.97;;;12.74;100.00
39141;BME280;24875;48.436;10.298;2023-11-21T12:01:25;95851.91;;;12.44;100.00
39141;BME280;24875;48.436;10.298;2023-11-21T12:04:23;95845.47;;;12.07;100.00
39141;BME280;24875;48.436;10.298;2023-11-21T12:06:57;95846.41;;;11.65;100.00
39141;BME280;24875;48.436;10.298;2023-11-21T12:09:28;95854.75;;;11.21;100.00
39141;BME280;24875;48.436;10.298;2023-11-21T12:11:55;95870.25;;;10.68;100.00
39141;BME280;24875;48.436;10.298;2023-11-21T12:14:23;95883.22;;;10.34;100.00
39141;BME280;24875;48.436;10.298;2023-11-21T12:16:50;95888.41;;;10.28;100.00
39141;BME280;24875;48.436;10.298;2023-11-21T12:19:18;95890.63;;;10.45;100.00
39141;BME280;24875;48.436;10.298;2023-11-21T12:21:46;95890.16;;;10.06;100.00
39141;BME280;24875;48.436;10.298;2023-11-21T12:24:14;95884.41;;;10.03;100.00
39141;BME280;24875;48.436;10.298;2023-11-21T12:26:42;95877.31;;;9.89;100.00
39141;BME280;24875;48.436;10.298;2023-11-21T12:29:09;95877.56;;;10.02;100.00
39141;BME280;24875;48.436;10.298;2023-11-21T12:31:37;95876.69;;;10.30;100.00
39141;BME280;24875;48.436;10.298;2023-11-21T12:34:04;95874.91;;;10.16;100.00
39141;BME280;24875;48.436;10.298;2023-11-21T12:36:32;95879.06;;;10.25;100.00
39141;BME280;24875;48.436;10.298;2023-11-21T12:39:00;95876.50;;;10.32;100.00
39141;BME280;24875;48.436;10.298;2023-11-21T12:41:27;95880.88;;;10.39;100.00
39141;BME280;24875;48.436;10.298;2023-11-21T12:43:54;95877.66;;;10.58;100.00
39141;BME280;24875;48.436;10.298;2023-11-21T12:46:21;95877.72;;;10.50;100.00
39141;BME280;24875;48.436;10.298;2023-11-21T12:48:49;95872.41;;;10.43;100.00